Time;durP1;ratioP1;P1;durP2;ratioP2;P2;SDS_P1;SDS_P2;PMS_P1;PMS_P2;Temp;Humidity;BMP_temperature;BMP_pressure;BME280_temperature;BME280_humidity;BME280_pressure;Samples;Min_cycle;Max_cycle;Signal;HPM_P1;HPM_P2
2022/12/04 00:01:29;;;;;;;;;;;1.50;82.80;;;;;;5055659;28;19916;-80
2022/12/04 00:03:57;;;;;;;;;;;1.50;82.90;;;;;;5064406;28;19916;-82
2022/12/04 00:06:23;;;;;;;;;;;1.40;83.10;;;;;;5055705;28;19912;-81
2022/12/04 00:08:49;;;;;;;;;;;1.30;83.20;;;;;;5051206;28;20016;-82
2022/12/04 00:11:16;;;;;;;;;;;1.40;83.20;;;;;;5051970;28;20220;-81
2022/12/04 00:13:42;;;;;;;;;;;1.40;83.10;;;;;;5070627;28;19991;-79
2022/12/04 00:16:10;;;;;;;;;;;1.40;83.30;;;;;;5058349;28;20016;-81
2022/12/04 00:18:35;;;;;;;;;;;1.50;83.10;;;;;;5061305;28;19913;-81
2022/12/04 00:21:04;;;;;;;;;;;1.50;83.10;;;;;;5046209;28;19919;-82
2022/12/04 00:23:30;;;;;;;;;;;1.40;83.20;;;;;;5059799;28;19919;-82
2022/12/04 00:26:00;;;;;;;;;;;1.40;83.50;;;;;;5055123;28;19914;-81
2022/12/04 00:28:25;;;;;;;;;;;1.40;83.70;;;;;;5068740;28;20388;-80
2022/12/04 00:30:51;;;;;;;;;;;1.40;83.20;;;;;;5045840;28;20016;-80
2022/12/04 00:33:16;;;;;;;;;;;1.50;83.00;;;;;;5054558;28;19920;-82
2022/12/04 00:35:42;;;;;;;;;;;1.50;83.00;;;;;;5049940;28;20277;-81
2022/12/04 00:38:07;;;;;;;;;;;1.50;83.10;;;;;;5052855;28;19913;-82
2022/12/04 00:40:33;;;;;;;;;;;1.40;83.30;;;;;;5065855;28;19920;-80
2022/12/04 00:42:58;;;;;;;;;;;1.50;83.40;;;;;;5058291;28;19912;-82
2022/12/04 00:45:24;;;;;;;;;;;1.50;83.30;;;;;;5045183;28;20291;-81
2022/12/04 00:47:49;;;;;;;;;;;1.60;83.30;;;;;;5053177;28;19939;-78
2022/12/04 00:50:15;;;;;;;;;;;1.40;83.30;;;;;;5052348;28;19913;-81
2022/12/04 00:52:40;;;;;;;;;;;1.40;83.70;;;;;;5053032;28;19915;-82
2022/12/04 00:55:06;;;;;;;;;;;1.30;83.70;;;;;;5051060;28;19916;-81
2022/12/04 00:57:31;;;;;;;;;;;1.30;83.90;;;;;;5069225;28;19916;-78
2022/12/04 00:59:57;;;;;;;;;;;1.50;83.60;;;;;;5051974;28;19951;-83
2022/12/04 01:02:22;;;;;;;;;;;1.50;83.60;;;;;;5051289;28;19920;-81
2022/12/04 01:04:48;;;;;;;;;;;1.40;83.60;;;;;;5040161;28;20331;-82
2022/12/04 01:07:13;;;;;;;;;;;1.40;83.70;;;;;;5052437;28;19913;-82
2022/12/04 01:09:38;;;;;;;;;;;1.40;83.70;;;;;;5054340;28;19916;-81
2022/12/04 01:12:04;;;;;;;;;;;1.40;83.70;;;;;;5048142;28;19920;-83
2022/12/04 01:14:30;;;;;;;;;;;1.50;83.60;;;;;;5055572;28;19920;-84
2022/12/04 01:16:55;;;;;;;;;;;1.50;83.50;;;;;;5053026;28;20382;-81
2022/12/04 01:19:21;;;;;;;;;;;1.40;83.50;;;;;;5059597;28;19912;-82
2022/12/04 01:21:46;;;;;;;;;;;1.40;83.80;;;;;;5055610;28;19958;-80
2022/12/04 01:24:12;;;;;;;;;;;1.40;83.80;;;;;;5060237;28;20342;-80
2022/12/04 01:26:37;;;;;;;;;;;1.50;83.70;;;;;;5057893;28;19912;-81
2022/12/04 01:29:03;;;;;;;;;;;1.50;83.70;;;;;;5053699;28;19921;-79
2022/12/04 01:31:28;;;;;;;;;;;1.50;83.80;;;;;;5051747;28;19921;-78
2022/12/04 01:33:54;;;;;;;;;;;1.40;83.60;;;;;;5042843;28;19939;-79
2022/12/04 01:36:21;;;;;;;;;;;1.40;83.50;;;;;;5050278;28;19917;-78
2022/12/04 01:38:46;;;;;;;;;;;1.40;83.70;;;;;;5069222;28;19913;-79
2022/12/04 01:41:13;;;;;;;;;;;1.40;83.70;;;;;;5049675;28;20430;-77
2022/12/04 01:43:39;;;;;;;;;;;1.40;83.70;;;;;;5075734;28;19919;-84
2022/12/04 01:46:05;;;;;;;;;;;1.50;83.90;;;;;;5043579;28;19960;-81
2022/12/04 01:48:32;;;;;;;;;;;1.50;83.70;;;;;;5049575;28;19920;-81
2022/12/04 01:51:01;;;;;;;;;;;1.50;83.60;;;;;;5066404;28;19995;-81
2022/12/04 01:53:28;;;;;;;;;;;1.60;83.50;;;;;;5050535;28;19921;-82
2022/12/04 01:55:54;;;;;;;;;;;1.60;83.10;;;;;;5046832;28;19979;-81
2022/12/04 01:58:21;;;;;;;;;;;1.60;83.00;;;;;;5053014;28;19921;-80
2022/12/04 02:00:50;;;;;;;;;;;1.60;83.10;;;;;;5051182;28;19963;-81
2022/12/04 02:03:16;;;;;;;;;;;1.70;83.00;;;;;;5057409;28;20379;-81
2022/12/04 02:05:42;;;;;;;;;;;1.60;83.20;;;;;;5054024;28;19919;-81
2022/12/04 02:08:09;;;;;;;;;;;1.60;83.20;;;;;;5071080;28;19942;-83
2022/12/04 02:10:41;;;;;;;;;;;1.60;83.10;;;;;;5053999;28;20087;-83
2022/12/04 02:13:16;;;;;;;;;;;1.60;82.90;;;;;;5061485;28;20008;-82
2022/12/04 02:15:53;;;;;;;;;;;1.60;83.40;;;;;;5065689;28;19917;-81
2022/12/04 02:18:37;;;;;;;;;;;1.60;83.30;;;;;;5065284;28;19921;-81
2022/12/04 02:21:17;;;;;;;;;;;1.70;82.80;;;;;;5069001;28;19913;-80
2022/12/04 02:24:01;;;;;;;;;;;1.60;82.90;;;;;;5055269;28;19919;-82
2022/12/04 02:26:39;;;;;;;;;;;1.60;83.20;;;;;;5057001;28;19995;-81
2022/12/04 02:29:16;;;;;;;;;;;1.60;83.20;;;;;;5058890;28;19927;-79
2022/12/04 02:31:41;;;;;;;;;;;1.80;82.90;;;;;;5056120;28;19912;-82
2022/12/04 02:34:27;;;;;;;;;;;1.60;83.10;;;;;;5057609;28;19920;-80
2022/12/04 02:37:07;;;;;;;;;;;1.60;83.00;;;;;;5055422;28;19920;-81
2022/12/04 02:39:41;;;;;;;;;;;1.70;82.90;;;;;;5048642;28;19935;-82
2022/12/04 02:42:11;;;;;;;;;;;1.70;82.80;;;;;;5062138;28;19912;-80
2022/12/04 02:44:41;;;;;;;;;;;1.60;83.00;;;;;;5055997;28;19912;-80
2022/12/04 02:47:09;;;;;;;;;;;1.60;83.10;;;;;;5054354;28;20435;-81
2022/12/04 02:49:46;;;;;;;;;;;1.60;83.10;;;;;;5059663;28;19912;-81
2022/12/04 02:52:14;;;;;;;;;;;1.60;83.20;;;;;;5047866;28;19966;-80
2022/12/04 02:54:41;;;;;;;;;;;1.60;82.80;;;;;;5053072;28;20426;-82
2022/12/04 02:57:10;;;;;;;;;;;1.70;83.10;;;;;;5051620;28;19920;-80
2022/12/04 02:59:37;;;;;;;;;;;1.70;82.90;;;;;;5057568;28;20364;-80
2022/12/04 03:02:07;;;;;;;;;;;1.60;82.90;;;;;;5055598;28;19916;-81
2022/12/04 03:04:33;;;;;;;;;;;1.60;82.90;;;;;;5050403;28;19913;-81
2022/12/04 03:07:01;;;;;;;;;;;1.70;82.80;;;;;;5051959;28;19913;-81
2022/12/04 03:09:29;;;;;;;;;;;1.70;82.60;;;;;;5055030;28;20253;-81
2022/12/04 03:11:56;;;;;;;;;;;1.60;82.70;;;;;;5053361;28;19919;-81
2022/12/04 03:14:23;;;;;;;;;;;1.70;82.80;;;;;;5057501;28;20432;-80
2022/12/04 03:16:51;;;;;;;;;;;1.80;82.70;;;;;;5051892;28;19923;-81
2022/12/04 03:19:28;;;;;;;;;;;1.60;82.60;;;;;;5060608;28;19952;-80
2022/12/04 03:21:55;;;;;;;;;;;1.70;82.60;;;;;;5053945;28;19920;-80
2022/12/04 03:24:23;;;;;;;;;;;1.60;82.70;;;;;;5063527;28;19939;-81
2022/12/04 03:26:51;;;;;;;;;;;1.60;82.70;;;;;;5058707;28;20296;-82
2022/12/04 03:29:18;;;;;;;;;;;1.60;82.70;;;;;;5069170;28;19920;-79
2022/12/04 03:31:55;;;;;;;;;;;1.60;82.80;;;;;;5058204;28;19924;-80
2022/12/04 03:34:26;;;;;;;;;;;1.60;83.20;;;;;;5060039;28;19966;-80
2022/12/04 03:36:54;;;;;;;;;;;1.50;82.90;;;;;;5050033;28;19921;-81
2022/12/04 03:39:23;;;;;;;;;;;1.60;83.00;;;;;;5051495;28;19999;-81
2022/12/04 03:42:09;;;;;;;;;;;1.50;82.90;;;;;;5052700;28;20354;-80
2022/12/04 03:44:38;;;;;;;;;;;1.60;83.00;;;;;;5042970;28;19999;-79
2022/12/04 03:47:09;;;;;;;;;;;1.50;82.80;;;;;;5061377;28;19912;-81
2022/12/04 03:49:55;;;;;;;;;;;1.50;83.00;;;;;;5039075;28;19917;-84
2022/12/04 03:52:26;;;;;;;;;;;1.60;82.90;;;;;;5048209;28;19929;-81
2022/12/04 03:54:55;;;;;;;;;;;1.60;82.70;;;;;;5052758;28;20294;-82
2022/12/04 03:57:27;;;;;;;;;;;1.60;83.00;;;;;;5065967;28;19948;-82
2022/12/04 04:00:07;;;;;;;;;;;1.50;82.40;;;;;;5054670;28;19927;-81
2022/12/04 04:02:35;;;;;;;;;;;1.50;82.70;;;;;;5046135;28;19999;-80
2022/12/04 04:05:01;;;;;;;;;;;1.50;82.80;;;;;;5054764;28;19916;-82
2022/12/04 04:07:36;;;;;;;;;;;1.50;82.80;;;;;;5047344;28;19930;-81
2022/12/04 04:10:06;;;;;;;;;;;1.50;82.70;;;;;;5058945;28;20007;-81
2022/12/04 04:12:36;;;;;;;;;;;1.50;82.90;;;;;;5048839;28;19995;-79
2022/12/04 04:26:13;;;;;;;;;;;1.50;82.60;;;;;;5057269;28;19919;-80
2022/12/04 04:28:39;;;;;;;;;;;1.50;82.80;;;;;;5062390;28;19912;-80
2022/12/04 04:31:40;;;;;;;;;;;1.50;82.90;;;;;;5051511;28;20004;-81
2022/12/04 04:34:06;;;;;;;;;;;1.40;82.90;;;;;;5014665;28;19941;-81
2022/12/04 04:36:39;;;;;;;;;;;1.40;83.00;;;;;;5038386;28;19964;-81
2022/12/04 04:39:18;;;;;;;;;;;1.40;83.30;;;;;;5050830;28;19913;-81
2022/12/04 04:41:49;;;;;;;;;;;1.50;83.00;;;;;;5050368;28;20383;-81
2022/12/04 04:44:23;;;;;;;;;;;1.40;82.90;;;;;;5057235;28;20292;-80
2022/12/04 04:46:51;;;;;;;;;;;1.40;82.80;;;;;;5053826;28;19975;-80
2022/12/04 04:49:18;;;;;;;;;;;1.40;83.00;;;;;;5046742;28;19913;-80
2022/12/04 04:51:43;;;;;;;;;;;1.30;83.00;;;;;;5041647;28;19944;-80
2022/12/04 04:54:10;;;;;;;;;;;1.30;83.00;;;;;;5054030;28;19916;-79
2022/12/04 04:56:40;;;;;;;;;;;1.30;83.20;;;;;;5053938;28;19924;-79
2022/12/04 04:59:05;;;;;;;;;;;1.30;83.30;;;;;;5053913;28;19924;-80
2022/12/04 05:01:31;;;;;;;;;;;1.30;83.30;;;;;;5055089;28;19913;-78
2022/12/04 05:03:56;;;;;;;;;;;1.30;83.40;;;;;;5049435;28;19917;-81
2022/12/04 05:06:22;;;;;;;;;;;1.30;83.20;;;;;;5065207;28;19909;-80
2022/12/04 05:08:48;;;;;;;;;;;1.30;83.40;;;;;;5062195;28;19962;-80
2022/12/04 05:11:14;;;;;;;;;;;1.30;83.40;;;;;;5072051;28;19913;-80
2022/12/04 05:13:40;;;;;;;;;;;1.30;83.10;;;;;;5051882;28;19912;-81
2022/12/04 05:16:07;;;;;;;;;;;1.40;83.10;;;;;;5057110;28;19985;-79
2022/12/04 05:18:33;;;;;;;;;;;1.40;82.80;;;;;;5049545;28;19944;-81
2022/12/04 05:21:03;;;;;;;;;;;1.40;83.00;;;;;;5058769;28;20300;-81
2022/12/04 05:23:29;;;;;;;;;;;1.40;83.10;;;;;;5045223;28;19924;-80
2022/12/04 05:25:58;;;;;;;;;;;1.40;82.80;;;;;;5051746;28;19917;-79
2022/12/04 05:28:23;;;;;;;;;;;1.40;82.70;;;;;;5044921;28;19921;-80
2022/12/04 05:31:02;;;;;;;;;;;1.30;82.90;;;;;;5056837;28;19917;-80
2022/12/04 05:33:28;;;;;;;;;;;1.40;82.90;;;;;;5051349;28;20062;-81
2022/12/04 05:36:00;;;;;;;;;;;1.40;82.80;;;;;;5065900;28;20003;-80
2022/12/04 05:38:26;;;;;;;;;;;1.40;82.90;;;;;;5060402;28;19920;-81
2022/12/04 05:40:51;;;;;;;;;;;1.40;82.50;;;;;;5055092;28;19976;-79
2022/12/04 05:43:17;;;;;;;;;;;1.40;82.60;;;;;;5053490;28;20364;-81
2022/12/04 05:45:42;;;;;;;;;;;1.40;82.90;;;;;;5067588;28;19917;-80
2022/12/04 05:48:08;;;;;;;;;;;1.40;82.50;;;;;;5066249;28;19948;-80
2022/12/04 05:50:34;;;;;;;;;;;1.30;82.40;;;;;;5073684;28;19924;-81
2022/12/04 05:52:59;;;;;;;;;;;1.30;82.70;;;;;;5067497;28;19897;-79
2022/12/04 05:55:25;;;;;;;;;;;1.30;82.50;;;;;;5071550;28;19959;-81
2022/12/04 05:57:50;;;;;;;;;;;1.30;82.70;;;;;;5070155;28;19954;-82
2022/12/04 06:00:16;;;;;;;;;;;1.40;82.80;;;;;;5057728;28;19921;-78
2022/12/04 06:02:42;;;;;;;;;;;1.30;82.60;;;;;;5071173;28;20323;-80
2022/12/04 06:05:08;;;;;;;;;;;1.40;82.60;;;;;;5065868;28;19913;-81
2022/12/04 06:07:33;;;;;;;;;;;1.30;82.80;;;;;;5069810;28;19919;-81
2022/12/04 06:09:58;;;;;;;;;;;1.30;83.00;;;;;;5064068;28;19924;-83
2022/12/04 06:12:24;;;;;;;;;;;1.30;83.10;;;;;;5055026;28;20760;-80
2022/12/04 06:14:49;;;;;;;;;;;1.40;83.00;;;;;;5065646;28;19927;-79
2022/12/04 06:17:15;;;;;;;;;;;1.40;82.80;;;;;;5064582;28;19917;-81
2022/12/04 06:19:40;;;;;;;;;;;1.40;83.00;;;;;;5058833;28;19999;-81
2022/12/04 06:22:06;;;;;;;;;;;1.30;83.10;;;;;;5049084;28;19913;-81
2022/12/04 06:24:31;;;;;;;;;;;1.40;83.10;;;;;;5054177;28;19909;-82
2022/12/04 06:26:57;;;;;;;;;;;1.40;83.20;;;;;;5050562;28;19916;-81
2022/12/04 06:29:23;;;;;;;;;;;1.50;82.70;;;;;;5058004;28;19920;-82
2022/12/04 06:31:48;;;;;;;;;;;1.50;82.70;;;;;;5061750;28;19916;-80
2022/12/04 06:34:14;;;;;;;;;;;1.40;82.60;;;;;;5063376;28;20047;-81
2022/12/04 06:36:39;;;;;;;;;;;1.30;82.80;;;;;;5064629;28;19917;-83
2022/12/04 06:39:05;;;;;;;;;;;1.40;82.80;;;;;;5060602;28;19966;-81
2022/12/04 06:41:30;;;;;;;;;;;1.30;82.70;;;;;;5059280;28;19913;-80
2022/12/04 06:43:56;;;;;;;;;;;1.30;83.30;;;;;;5053785;28;19921;-82
2022/12/04 06:46:23;;;;;;;;;;;1.30;83.20;;;;;;5045348;22;20404;-79
2022/12/04 06:48:49;;;;;;;;;;;1.30;83.10;;;;;;5021980;28;20272;-79
2022/12/04 06:51:17;;;;;;;;;;;1.40;83.30;;;;;;5023280;28;20011;-79
2022/12/04 06:53:43;;;;;;;;;;;1.40;83.40;;;;;;5023764;28;19956;-79
2022/12/04 06:56:10;;;;;;;;;;;1.40;83.70;;;;;;5024736;28;19928;-79
2022/12/04 06:58:35;;;;;;;;;;;1.40;83.40;;;;;;5030028;28;20373;-78
2022/12/04 07:01:05;;;;;;;;;;;1.50;83.30;;;;;;5030195;28;19920;-78
2022/12/04 07:03:31;;;;;;;;;;;1.40;83.10;;;;;;5028268;28;20457;-79
2022/12/04 07:05:56;;;;;;;;;;;1.40;83.40;;;;;;5031855;28;19913;-80
2022/12/04 07:08:22;;;;;;;;;;;1.40;83.50;;;;;;5028070;28;19918;-79
2022/12/04 07:10:47;;;;;;;;;;;1.40;83.20;;;;;;5031281;28;19920;-79
2022/12/04 07:13:13;;;;;;;;;;;1.40;83.40;;;;;;5027825;28;19917;-80
2022/12/04 07:15:38;;;;;;;;;;;1.40;83.20;;;;;;5046951;28;20004;-79
2022/12/04 07:18:04;;;;;;;;;;;1.50;83.30;;;;;;5047416;28;19925;-79
2022/12/04 07:20:30;;;;;;;;;;;1.50;83.40;;;;;;5051061;28;19913;-79
2022/12/04 07:22:55;;;;;;;;;;;1.50;83.40;;;;;;5040502;28;19920;-79
2022/12/04 07:25:21;;;;;;;;;;;1.50;83.60;;;;;;5018356;28;19925;-79
2022/12/04 07:27:46;;;;;;;;;;;1.50;83.60;;;;;;5033748;28;20293;-79
2022/12/04 07:30:12;;;;;;;;;;;1.60;83.20;;;;;;5024483;28;20060;-79
2022/12/04 07:32:37;;;;;;;;;;;1.50;82.90;;;;;;5014305;28;19917;-79
2022/12/04 07:35:03;;;;;;;;;;;1.50;83.50;;;;;;5032274;28;19917;-79
2022/12/04 07:37:29;;;;;;;;;;;1.50;83.60;;;;;;5026508;28;20389;-79
2022/12/04 07:39:55;;;;;;;;;;;1.50;83.90;;;;;;5024525;28;19964;-79
2022/12/04 07:42:20;;;;;;;;;;;1.60;83.20;;;;;;5031086;28;19913;-79
2022/12/04 07:44:46;;;;;;;;;;;1.60;83.50;;;;;;5031959;28;20004;-78
2022/12/04 07:47:11;;;;;;;;;;;1.60;83.60;;;;;;5027923;28;19944;-79
2022/12/04 07:49:37;;;;;;;;;;;1.60;83.50;;;;;;5019224;28;19910;-79
2022/12/04 07:52:03;;;;;;;;;;;1.60;83.30;;;;;;5037616;28;20276;-78
2022/12/04 07:54:28;;;;;;;;;;;1.70;82.90;;;;;;5024051;28;19913;-79
2022/12/04 07:56:54;;;;;;;;;;;1.60;82.70;;;;;;5021983;28;19913;-79
2022/12/04 07:59:19;;;;;;;;;;;1.60;83.00;;;;;;5018355;28;19913;-79
2022/12/04 08:01:44;;;;;;;;;;;1.60;83.00;;;;;;5021392;28;19909;-80
2022/12/04 08:04:10;;;;;;;;;;;1.50;83.40;;;;;;5024333;28;19944;-79
2022/12/04 08:06:36;;;;;;;;;;;1.60;83.30;;;;;;5022769;28;20368;-78
2022/12/04 08:09:02;;;;;;;;;;;1.60;83.30;;;;;;5034146;28;19992;-76
2022/12/04 08:11:28;;;;;;;;;;;1.60;83.40;;;;;;5039177;28;19913;-77
2022/12/04 08:13:54;;;;;;;;;;;1.60;83.60;;;;;;5031744;28;19955;-78
2022/12/04 08:16:20;;;;;;;;;;;1.60;83.60;;;;;;5024002;28;20016;-79
2022/12/04 08:18:47;;;;;;;;;;;1.60;83.10;;;;;;5040722;28;20421;-80
2022/12/04 08:21:14;;;;;;;;;;;1.60;83.30;;;;;;5021986;28;19917;-78
2022/12/04 08:23:40;;;;;;;;;;;1.60;83.10;;;;;;5028542;28;20308;-77
2022/12/04 08:26:07;;;;;;;;;;;1.60;83.40;;;;;;5025510;28;19974;-79
2022/12/04 08:28:32;;;;;;;;;;;1.60;83.50;;;;;;5032529;28;20020;-79
2022/12/04 08:31:02;;;;;;;;;;;1.60;83.30;;;;;;5027586;28;20375;-79
2022/12/04 08:33:28;;;;;;;;;;;1.60;83.70;;;;;;5029952;28;19967;-79
2022/12/04 08:35:53;;;;;;;;;;;1.70;83.40;;;;;;5033527;28;19917;-79
2022/12/04 08:38:19;;;;;;;;;;;1.70;83.20;;;;;;5038697;28;19928;-79
2022/12/04 08:40:44;;;;;;;;;;;1.70;83.50;;;;;;5044497;28;19920;-80
2022/12/04 08:43:10;;;;;;;;;;;1.80;83.40;;;;;;5034309;28;19917;-79
2022/12/04 08:45:35;;;;;;;;;;;1.80;83.50;;;;;;5031209;28;20455;-79
2022/12/04 08:48:01;;;;;;;;;;;1.80;82.90;;;;;;5042136;28;19913;-79
2022/12/04 08:50:26;;;;;;;;;;;1.80;83.40;;;;;;5025547;28;19913;-80
2022/12/04 08:52:51;;;;;;;;;;;1.80;83.50;;;;;;5055116;28;19913;-80
2022/12/04 08:55:17;;;;;;;;;;;1.80;83.40;;;;;;5049756;28;19927;-80
2022/12/04 08:57:42;;;;;;;;;;;1.80;83.10;;;;;;5036321;28;20324;-80
2022/12/04 09:00:08;;;;;;;;;;;1.80;83.20;;;;;;5027637;28;19918;-79
2022/12/04 09:02:33;;;;;;;;;;;1.90;83.20;;;;;;5034654;28;19921;-80
2022/12/04 09:04:59;;;;;;;;;;;1.90;83.00;;;;;;5031086;28;20357;-79
2022/12/04 09:07:24;;;;;;;;;;;1.90;82.70;;;;;;5047080;28;19928;-80
2022/12/04 09:09:50;;;;;;;;;;;1.80;82.80;;;;;;5031589;28;19932;-80
2022/12/04 09:12:15;;;;;;;;;;;1.80;83.20;;;;;;5033229;28;19975;-79
2022/12/04 09:14:41;;;;;;;;;;;1.80;83.50;;;;;;5020772;28;20424;-79
2022/12/04 09:17:06;;;;;;;;;;;1.80;83.50;;;;;;5022291;28;19914;-79
2022/12/04 09:19:34;;;;;;;;;;;1.90;83.50;;;;;;5027078;28;19913;-80
2022/12/04 09:21:59;;;;;;;;;;;1.90;83.60;;;;;;5041390;28;20423;-80
2022/12/04 09:24:25;;;;;;;;;;;1.90;83.20;;;;;;5043878;28;19921;-80
2022/12/04 09:26:50;;;;;;;;;;;1.90;83.20;;;;;;5027472;28;19914;-80
2022/12/04 09:29:16;;;;;;;;;;;2.10;82.90;;;;;;5038699;28;19925;-80
2022/12/04 09:31:41;;;;;;;;;;;2.00;82.80;;;;;;5026200;28;19909;-80
2022/12/04 09:34:07;;;;;;;;;;;2.00;82.80;;;;;;5025933;28;19913;-80
2022/12/04 09:36:32;;;;;;;;;;;2.00;82.90;;;;;;5030527;28;19917;-79
2022/12/04 09:38:58;;;;;;;;;;;2.00;82.70;;;;;;5026545;28;19923;-79
2022/12/04 09:41:35;;;;;;;;;;;2.10;82.60;;;;;;5028334;28;19914;-77
2022/12/04 09:44:16;;;;;;;;;;;2.10;82.70;;;;;;5028983;28;19913;-77
2022/12/04 09:46:45;;;;;;;;;;;2.00;82.80;;;;;;5032576;28;19917;-79
2022/12/04 09:49:14;;;;;;;;;;;2.00;83.00;;;;;;5034496;28;19920;-78
2022/12/04 09:51:40;;;;;;;;;;;2.00;82.90;;;;;;5041615;28;19913;-78
2022/12/04 09:54:13;;;;;;;;;;;2.20;83.80;;;;;;5034506;28;19944;-80
2022/12/04 09:56:38;;;;;;;;;;;2.10;82.80;;;;;;5031418;28;20295;-80
2022/12/04 09:59:04;;;;;;;;;;;2.10;83.40;;;;;;5032613;28;19909;-79
2022/12/04 10:01:33;;;;;;;;;;;2.00;83.40;;;;;;5029406;28;20687;-79
2022/12/04 10:03:59;;;;;;;;;;;2.00;83.60;;;;;;5028590;28;20384;-80
2022/12/04 10:06:27;;;;;;;;;;;2.00;83.80;;;;;;5028981;28;19928;-80
2022/12/04 10:09:01;;;;;;;;;;;2.00;83.90;;;;;;5030635;28;20008;-80
2022/12/04 10:11:42;;;;;;;;;;;2.00;83.90;;;;;;5032484;28;19969;-80
2022/12/04 10:14:13;;;;;;;;;;;2.10;83.80;;;;;;5031096;28;19910;-78
2022/12/04 10:16:41;;;;;;;;;;;2.10;83.80;;;;;;5029827;28;19940;-81
2022/12/04 10:19:07;;;;;;;;;;;2.10;83.90;;;;;;5033083;28;20024;-79
2022/12/04 10:21:44;;;;;;;;;;;2.20;83.60;;;;;;5035754;28;19952;-79
2022/12/04 10:24:22;;;;;;;;;;;2.20;83.90;;;;;;5026241;28;20359;-80
2022/12/04 10:26:48;;;;;;;;;;;2.30;83.60;;;;;;5027189;28;20397;-79
2022/12/04 10:29:18;;;;;;;;;;;2.30;83.60;;;;;;5033659;28;19920;-80
2022/12/04 10:31:44;;;;;;;;;;;2.20;83.50;;;;;;5029098;28;20008;-79
2022/12/04 10:34:22;;;;;;;;;;;2.20;83.60;;;;;;5036825;28;19943;-77
2022/12/04 10:36:50;;;;;;;;;;;2.30;83.70;;;;;;5039256;28;19985;-80
2022/12/04 10:39:25;;;;;;;;;;;2.30;83.70;;;;;;5037265;28;19925;-79
2022/12/04 10:41:54;;;;;;;;;;;2.40;83.50;;;;;;5030006;28;19909;-78
2022/12/04 10:44:19;;;;;;;;;;;2.40;83.30;;;;;;5045433;28;19965;-79
2022/12/04 10:46:45;;;;;;;;;;;2.30;83.20;;;;;;5032569;28;19917;-78
2022/12/04 10:49:11;;;;;;;;;;;2.20;83.20;;;;;;5035156;28;19917;-78
2022/12/04 10:51:38;;;;;;;;;;;2.20;84.00;;;;;;5035527;28;19913;-79
2022/12/04 10:54:29;;;;;;;;;;;2.30;83.90;;;;;;5038299;28;19917;-78
2022/12/04 10:56:56;;;;;;;;;;;2.20;84.00;;;;;;5036343;28;19917;-78
2022/12/04 10:59:22;;;;;;;;;;;2.30;84.00;;;;;;5055691;28;19970;-78
2022/12/04 11:01:48;;;;;;;;;;;2.30;84.00;;;;;;5048582;28;20385;-78
2022/12/04 11:04:24;;;;;;;;;;;2.30;83.90;;;;;;5044580;28;19964;-79
2022/12/04 11:06:58;;;;;;;;;;;2.30;83.60;;;;;;5041110;28;19981;-78
2022/12/04 11:09:24;;;;;;;;;;;2.40;83.90;;;;;;5034697;28;20003;-79
2022/12/04 11:11:50;;;;;;;;;;;2.40;83.70;;;;;;5029311;28;20183;-78
2022/12/04 11:14:17;;;;;;;;;;;2.40;83.70;;;;;;5045907;28;19913;-78
2022/12/04 11:16:44;;;;;;;;;;;2.40;83.80;;;;;;5051441;28;19928;-79
2022/12/04 11:19:22;;;;;;;;;;;2.40;84.10;;;;;;5032952;28;20048;-78
2022/12/04 11:21:48;;;;;;;;;;;2.40;84.00;;;;;;5035061;28;20001;-78
2022/12/04 11:24:18;;;;;;;;;;;2.50;83.80;;;;;;5036633;28;20167;-78
2022/12/04 11:26:46;;;;;;;;;;;2.50;84.10;;;;;;5049019;28;19913;-79
2022/12/04 11:29:13;;;;;;;;;;;2.50;83.90;;;;;;5047657;28;19913;-78
2022/12/04 11:31:39;;;;;;;;;;;2.50;83.90;;;;;;5048955;28;19917;-78
2022/12/04 11:34:06;;;;;;;;;;;2.50;83.90;;;;;;5038788;28;20340;-78
2022/12/04 11:36:41;;;;;;;;;;;2.50;84.10;;;;;;5029559;28;20004;-78
2022/12/04 11:39:09;;;;;;;;;;;2.60;84.10;;;;;;5027396;28;19925;-78
2022/12/04 11:41:35;;;;;;;;;;;2.60;83.80;;;;;;5033692;28;20214;-78
2022/12/04 11:44:01;;;;;;;;;;;2.60;83.80;;;;;;5029441;28;19924;-78
2022/12/04 11:46:30;;;;;;;;;;;2.60;83.70;;;;;;5029487;28;19922;-77
2022/12/04 11:48:56;;;;;;;;;;;2.60;84.10;;;;;;5024991;28;20490;-80
2022/12/04 11:51:21;;;;;;;;;;;2.60;84.00;;;;;;5019776;28;19964;-78
2022/12/04 11:54:05;;;;;;;;;;;2.60;84.30;;;;;;5020409;28;19920;-78
2022/12/04 11:56:33;;;;;;;;;;;2.60;84.10;;;;;;5023963;28;19925;-79
2022/12/04 11:58:58;;;;;;;;;;;2.60;84.30;;;;;;5027840;28;19913;-78
2022/12/04 12:01:33;;;;;;;;;;;2.60;84.10;;;;;;5017966;28;19921;-80
2022/12/04 12:04:19;;;;;;;;;;;2.60;84.20;;;;;;5038860;28;20377;-78
2022/12/04 12:06:45;;;;;;;;;;;2.60;84.30;;;;;;5032922;28;19913;-79
2022/12/04 12:09:10;;;;;;;;;;;2.60;84.40;;;;;;5025074;28;19925;-79
2022/12/04 12:11:38;;;;;;;;;;;2.60;84.30;;;;;;5033980;28;19909;-79
2022/12/04 12:14:13;;;;;;;;;;;2.70;84.40;;;;;;5041048;28;19917;-78
2022/12/04 12:16:41;;;;;;;;;;;2.70;84.20;;;;;;5047220;28;19931;-78
2022/12/04 12:19:07;;;;;;;;;;;2.70;84.30;;;;;;5042774;28;20420;-78
2022/12/04 12:21:33;;;;;;;;;;;2.70;84.00;;;;;;5025045;28;19920;-80
2022/12/04 12:23:58;;;;;;;;;;;2.70;83.80;;;;;;5031627;28;20364;-80
2022/12/04 12:26:29;;;;;;;;;;;2.60;83.90;;;;;;5027475;28;19924;-79
2022/12/04 12:29:09;;;;;;;;;;;2.70;84.10;;;;;;5025974;28;19913;-79
2022/12/04 12:31:53;;;;;;;;;;;2.70;84.00;;;;;;5023758;28;20070;-78
2022/12/04 12:34:33;;;;;;;;;;;2.70;84.00;;;;;;5029842;28;19917;-78
2022/12/04 12:37:02;;;;;;;;;;;2.70;84.20;;;;;;5025777;28;19921;-78
2022/12/04 12:39:37;;;;;;;;;;;2.70;84.30;;;;;;5054915;28;19980;-78
2022/12/04 12:42:03;;;;;;;;;;;2.70;84.20;;;;;;5052350;28;20056;-78
2022/12/04 12:46:59;;;;;;;;;;;2.80;83.70;;;;;;5111828;22;20013;-83
2022/12/04 12:49:28;;;;;;;;;;;2.80;83.40;;;;;;5079653;28;20386;-86
2022/12/04 12:52:25;;;;;;;;;;;2.90;82.80;;;;;;5071691;28;19913;-90
2022/12/04 12:54:53;;;;;;;;;;;2.80;82.90;;;;;;5086323;22;19939;-82
2022/12/04 12:57:20;;;;;;;;;;;2.80;83.10;;;;;;5055395;28;19985;-82
2022/12/04 13:00:17;;;;;;;;;;;2.80;83.70;;;;;;5045586;28;21364;-81
2022/12/04 13:02:59;;;;;;;;;;;2.80;83.20;;;;;;5043648;28;19920;-83
2022/12/04 13:05:26;;;;;;;;;;;2.80;83.30;;;;;;5047501;28;19913;-80
2022/12/04 13:08:02;;;;;;;;;;;2.80;82.80;;;;;;5042365;28;20020;-81
2022/12/04 13:10:32;;;;;;;;;;;2.80;82.90;;;;;;5049685;28;20115;-82
2022/12/04 13:13:13;;;;;;;;;;;2.90;82.70;;;;;;5042349;28;19996;-81
2022/12/04 13:15:42;;;;;;;;;;;2.90;82.70;;;;;;5048398;28;20017;-80
2022/12/04 13:18:14;;;;;;;;;;;2.80;82.60;;;;;;5045900;28;19913;-81
2022/12/04 13:20:45;;;;;;;;;;;2.80;82.90;;;;;;5049283;28;19919;-82
2022/12/04 13:23:29;;;;;;;;;;;2.80;83.00;;;;;;5052076;28;19917;-81
2022/12/04 13:25:57;;;;;;;;;;;2.80;83.40;;;;;;5054059;28;19998;-82
2022/12/04 13:28:23;;;;;;;;;;;2.90;82.80;;;;;;5050210;28;20360;-81
2022/12/04 13:31:07;;;;;;;;;;;2.90;83.00;;;;;;5059767;28;19995;-82
2022/12/04 13:33:51;;;;;;;;;;;2.80;82.80;;;;;;5041168;28;19921;-82
2022/12/04 13:36:21;;;;;;;;;;;2.80;82.90;;;;;;5048170;28;19924;-80
2022/12/04 13:39:05;;;;;;;;;;;2.80;82.90;;;;;;5047372;28;20462;-82
2022/12/04 13:41:34;;;;;;;;;;;2.80;83.30;;;;;;5049159;28;19921;-81
2022/12/04 13:43:59;;;;;;;;;;;2.90;83.10;;;;;;5073277;28;20002;-84
2022/12/04 13:46:32;;;;;;;;;;;2.90;83.10;;;;;;5053156;28;19953;-81
2022/12/04 13:49:08;;;;;;;;;;;2.90;83.30;;;;;;5048122;28;20051;-80
2022/12/04 13:51:38;;;;;;;;;;;2.90;83.10;;;;;;5045980;28;20387;-82
2022/12/04 13:54:10;;;;;;;;;;;2.90;83.00;;;;;;5040571;28;19966;-80
2022/12/04 13:56:36;;;;;;;;;;;3.00;82.90;;;;;;5049266;28;19925;-84
2022/12/04 13:59:03;;;;;;;;;;;3.00;83.30;;;;;;5069290;28;19923;-82
2022/12/04 14:01:39;;;;;;;;;;;3.00;83.30;;;;;;5047680;28;20267;-79
2022/12/04 14:04:05;;;;;;;;;;;3.00;83.10;;;;;;5050056;28;19921;-81
2022/12/04 14:06:38;;;;;;;;;;;3.00;82.90;;;;;;5057749;28;19913;-79
2022/12/04 14:09:07;;;;;;;;;;;3.00;82.80;;;;;;5055157;28;19913;-79
2022/12/04 14:11:41;;;;;;;;;;;3.00;83.10;;;;;;5061795;28;19923;-81
2022/12/04 14:14:18;;;;;;;;;;;3.00;83.00;;;;;;5052141;28;20003;-80
2022/12/04 14:16:47;;;;;;;;;;;2.90;83.30;;;;;;5067466;28;19917;-79
2022/12/04 14:19:25;;;;;;;;;;;2.90;83.20;;;;;;5047030;28;19919;-78
2022/12/04 14:21:50;;;;;;;;;;;2.90;83.50;;;;;;5050582;28;20546;-78
2022/12/04 14:24:30;;;;;;;;;;;2.90;83.70;;;;;;5051365;28;19995;-78
2022/12/04 14:26:56;;;;;;;;;;;3.00;83.70;;;;;;5062575;28;19905;-78
2022/12/04 14:29:21;;;;;;;;;;;3.00;83.20;;;;;;5092033;28;21211;-80
2022/12/04 14:31:47;;;;;;;;;;;2.90;83.40;;;;;;5074455;28;19921;-79
2022/12/04 14:34:20;;;;;;;;;;;2.90;83.70;;;;;;5077831;28;20064;-84
2022/12/04 14:36:47;;;;;;;;;;;2.90;83.60;;;;;;5073674;28;19928;-79
2022/12/04 14:39:15;;;;;;;;;;;3.00;83.60;;;;;;5083694;28;19959;-79
2022/12/04 14:41:41;;;;;;;;;;;3.00;83.40;;;;;;5092076;28;19962;-81
2022/12/04 14:44:17;;;;;;;;;;;3.00;83.70;;;;;;5084956;28;19904;-78
2022/12/04 14:46:48;;;;;;;;;;;3.00;84.00;;;;;;5071403;28;19924;-78
2022/12/04 14:49:30;;;;;;;;;;;3.00;83.40;;;;;;5064699;28;20406;-77
2022/12/04 14:52:11;;;;;;;;;;;3.00;83.40;;;;;;5053378;28;20389;-78
2022/12/04 14:54:39;;;;;;;;;;;2.90;83.80;;;;;;5066855;28;19908;-78